sensor_id;sensor_type;location;lat;lon;timestamp;P1;durP1;ratioP1;P2;durP2;ratioP2
36799;SDS011;22752;51.960;5.886;2022-08-19T00:01:32;4.70;;;3.20;;
36799;SDS011;22752;51.960;5.886;2022-08-19T00:03:59;6.28;;;3.10;;
36799;SDS011;22752;51.960;5.886;2022-08-19T00:06:28;4.30;;;3.60;;
36799;SDS011;22752;51.960;5.886;2022-08-19T00:08:55;3.40;;;3.10;;
36799;SDS011;22752;51.960;5.886;2022-08-19T00:11:22;5.00;;;3.47;;
36799;SDS011;22752;51.960;5.886;2022-08-19T00:13:49;5.55;;;3.42;;
36799;SDS011;22752;51.960;5.886;2022-08-19T00:16:15;5.35;;;3.67;;
36799;SDS011;22752;51.960;5.886;2022-08-19T00:18:44;5.07;;;3.33;;
36799;SDS011;22752;51.960;5.886;2022-08-19T00:21:10;5.43;;;3.67;;
36799;SDS011;22752;51.960;5.886;2022-08-19T00:23:36;5.05;;;3.65;;
36799;SDS011;22752;51.960;5.886;2022-08-19T00:26:02;4.53;;;4.13;;
36799;SDS011;22752;51.960;5.886;2022-08-19T00:28:29;4.72;;;4.07;;
36799;SDS011;22752;51.960;5.886;2022-08-19T00:30:55;3.17;;;2.97;;
36799;SDS011;22752;51.960;5.886;2022-08-19T00:33:21;3.97;;;3.58;;
36799;SDS011;22752;51.960;5.886;2022-08-19T00:35:47;7.93;;;4.03;;
36799;SDS011;22752;51.960;5.886;2022-08-19T00:38:13;5.28;;;3.60;;
36799;SDS011;22752;51.960;5.886;2022-08-19T00:40:39;5.40;;;3.50;;
36799;SDS011;22752;51.960;5.886;2022-08-19T00:43:10;5.63;;;3.65;;
36799;SDS011;22752;51.960;5.886;2022-08-19T00:45:38;5.35;;;3.72;;
36799;SDS011;22752;51.960;5.886;2022-08-19T00:48:06;3.42;;;3.13;;
36799;SDS011;22752;51.960;5.886;2022-08-19T00:50:32;4.22;;;3.55;;
36799;SDS011;22752;51.960;5.886;2022-08-19T00:52:59;3.90;;;3.35;;
36799;SDS011;22752;51.960;5.886;2022-08-19T00:55:29;4.13;;;3.38;;
36799;SDS011;22752;51.960;5.886;2022-08-19T00:57:59;3.40;;;3.10;;
36799;SDS011;22752;51.960;5.886;2022-08-19T01:00:33;6.47;;;3.30;;
36799;SDS011;22752;51.960;5.886;2022-08-19T01:03:03;3.70;;;3.20;;
36799;SDS011;22752;51.960;5.886;2022-08-19T01:05:31;4.97;;;3.10;;
36799;SDS011;22752;51.960;5.886;2022-08-19T01:07:58;4.43;;;3.28;;
36799;SDS011;22752;51.960;5.886;2022-08-19T01:10:25;3.97;;;3.25;;
36799;SDS011;22752;51.960;5.886;2022-08-19T01:12:54;4.10;;;3.70;;
36799;SDS011;22752;51.960;5.886;2022-08-19T01:15:25;4.15;;;3.40;;
36799;SDS011;22752;51.960;5.886;2022-08-19T01:17:54;3.95;;;3.65;;
36799;SDS011;22752;51.960;5.886;2022-08-19T01:20:22;3.45;;;3.10;;
36799;SDS011;22752;51.960;5.886;2022-08-19T01:22:50;4.00;;;3.63;;
36799;SDS011;22752;51.960;5.886;2022-08-19T01:25:24;5.43;;;4.17;;
36799;SDS011;22752;51.960;5.886;2022-08-19T01:27:54;4.20;;;3.80;;
36799;SDS011;22752;51.960;5.886;2022-08-19T01:30:29;5.15;;;4.28;;
36799;SDS011;22752;51.960;5.886;2022-08-19T01:32:58;5.25;;;3.72;;
36799;SDS011;22752;51.960;5.886;2022-08-19T01:35:25;4.53;;;3.78;;
36799;SDS011;22752;51.960;5.886;2022-08-19T01:38:05;5.30;;;3.90;;
36799;SDS011;22752;51.960;5.886;2022-08-19T01:40:33;5.47;;;4.10;;
36799;SDS011;22752;51.960;5.886;2022-08-19T01:43:01;4.47;;;4.07;;
36799;SDS011;22752;51.960;5.886;2022-08-19T01:45:28;6.43;;;3.70;;
36799;SDS011;22752;51.960;5.886;2022-08-19T01:47:57;4.88;;;3.83;;
36799;SDS011;22752;51.960;5.886;2022-08-19T01:50:24;5.05;;;4.55;;
36799;SDS011;22752;51.960;5.886;2022-08-19T01:52:49;5.00;;;4.50;;
36799;SDS011;22752;51.960;5.886;2022-08-19T01:55:16;4.70;;;4.25;;
36799;SDS011;22752;51.960;5.886;2022-08-19T01:57:46;5.63;;;5.07;;
36799;SDS011;22752;51.960;5.886;2022-08-19T02:00:16;6.30;;;5.05;;
36799;SDS011;22752;51.960;5.886;2022-08-19T02:02:43;6.25;;;5.07;;
36799;SDS011;22752;51.960;5.886;2022-08-19T02:05:08;6.00;;;4.50;;
36799;SDS011;22752;51.960;5.886;2022-08-19T02:07:35;5.90;;;4.28;;
36799;SDS011;22752;51.960;5.886;2022-08-19T02:10:02;5.93;;;4.43;;
36799;SDS011;22752;51.960;5.886;2022-08-19T02:12:33;4.80;;;4.40;;
36799;SDS011;22752;51.960;5.886;2022-08-19T02:14:59;8.55;;;4.57;;
36799;SDS011;22752;51.960;5.886;2022-08-19T02:17:25;5.68;;;5.18;;
36799;SDS011;22752;51.960;5.886;2022-08-19T02:19:53;5.38;;;4.88;;
36799;SDS011;22752;51.960;5.886;2022-08-19T02:22:19;6.20;;;4.72;;
36799;SDS011;22752;51.960;5.886;2022-08-19T02:24:45;5.53;;;4.75;;
36799;SDS011;22752;51.960;5.886;2022-08-19T02:27:13;5.32;;;4.82;;
36799;SDS011;22752;51.960;5.886;2022-08-19T02:29:39;5.55;;;5.05;;
36799;SDS011;22752;51.960;5.886;2022-08-19T02:32:06;5.38;;;4.85;;
36799;SDS011;22752;51.960;5.886;2022-08-19T02:34:31;6.47;;;5.10;;
36799;SDS011;22752;51.960;5.886;2022-08-19T02:36:57;6.40;;;5.32;;
36799;SDS011;22752;51.960;5.886;2022-08-19T02:39:23;5.75;;;4.57;;
36799;SDS011;22752;51.960;5.886;2022-08-19T02:41:49;6.80;;;5.60;;
36799;SDS011;22752;51.960;5.886;2022-08-19T02:44:15;7.63;;;6.15;;
36799;SDS011;22752;51.960;5.886;2022-08-19T02:46:41;6.28;;;5.13;;
36799;SDS011;22752;51.960;5.886;2022-08-19T02:49:08;7.22;;;6.53;;
36799;SDS011;22752;51.960;5.886;2022-08-19T02:51:43;7.60;;;6.68;;
36799;SDS011;22752;51.960;5.886;2022-08-19T02:54:10;6.18;;;5.57;;
36799;SDS011;22752;51.960;5.886;2022-08-19T02:56:37;8.95;;;5.97;;
36799;SDS011;22752;51.960;5.886;2022-08-19T02:59:04;7.78;;;5.63;;
36799;SDS011;22752;51.960;5.886;2022-08-19T03:01:36;6.10;;;5.50;;
36799;SDS011;22752;51.960;5.886;2022-08-19T03:04:04;4.90;;;4.45;;
36799;SDS011;22752;51.960;5.886;2022-08-19T03:06:30;7.10;;;5.60;;
36799;SDS011;22752;51.960;5.886;2022-08-19T03:08:56;5.40;;;4.90;;
36799;SDS011;22752;51.960;5.886;2022-08-19T03:11:27;6.10;;;5.32;;
36799;SDS011;22752;51.960;5.886;2022-08-19T03:13:54;5.28;;;4.80;;
36799;SDS011;22752;51.960;5.886;2022-08-19T03:16:21;6.95;;;6.22;;
36799;SDS011;22752;51.960;5.886;2022-08-19T03:18:49;6.88;;;6.18;;
36799;SDS011;22752;51.960;5.886;2022-08-19T03:21:19;7.18;;;6.38;;
36799;SDS011;22752;51.960;5.886;2022-08-19T03:23:48;7.78;;;6.32;;
36799;SDS011;22752;51.960;5.886;2022-08-19T03:26:14;7.00;;;6.30;;
36799;SDS011;22752;51.960;5.886;2022-08-19T03:28:44;6.35;;;5.82;;
36799;SDS011;22752;51.960;5.886;2022-08-19T03:31:14;5.55;;;4.93;;
36799;SDS011;22752;51.960;5.886;2022-08-19T03:33:40;7.07;;;5.38;;
36799;SDS011;22752;51.960;5.886;2022-08-19T03:36:08;5.30;;;4.80;;
36799;SDS011;22752;51.960;5.886;2022-08-19T03:38:37;6.35;;;4.90;;
36799;SDS011;22752;51.960;5.886;2022-08-19T03:41:12;6.57;;;4.78;;
36799;SDS011;22752;51.960;5.886;2022-08-19T03:43:40;8.02;;;5.60;;
36799;SDS011;22752;51.960;5.886;2022-08-19T03:46:08;7.25;;;6.22;;
36799;SDS011;22752;51.960;5.886;2022-08-19T03:48:36;6.63;;;5.28;;
36799;SDS011;22752;51.960;5.886;2022-08-19T03:51:04;6.45;;;5.72;;
36799;SDS011;22752;51.960;5.886;2022-08-19T03:53:30;6.53;;;5.80;;
36799;SDS011;22752;51.960;5.886;2022-08-19T03:55:57;5.85;;;5.32;;
36799;SDS011;22752;51.960;5.886;2022-08-19T03:58:25;6.15;;;5.13;;
36799;SDS011;22752;51.960;5.886;2022-08-19T04:00:53;7.10;;;6.30;;
36799;SDS011;22752;51.960;5.886;2022-08-19T04:03:20;7.47;;;6.68;;
36799;SDS011;22752;51.960;5.886;2022-08-19T04:05:46;6.55;;;5.95;;
36799;SDS011;22752;51.960;5.886;2022-08-19T04:08:12;7.55;;;6.85;;
36799;SDS011;22752;51.960;5.886;2022-08-19T04:10:38;9.13;;;6.20;;
36799;SDS011;22752;51.960;5.886;2022-08-19T04:13:05;7.18;;;6.43;;
36799;SDS011;22752;51.960;5.886;2022-08-19T04:15:32;7.45;;;6.60;;
36799;SDS011;22752;51.960;5.886;2022-08-19T04:18:04;8.18;;;5.65;;
36799;SDS011;22752;51.960;5.886;2022-08-19T04:20:33;6.90;;;5.70;;
36799;SDS011;22752;51.960;5.886;2022-08-19T04:23:09;5.97;;;5.47;;
36799;SDS011;22752;51.960;5.886;2022-08-19T04:25:39;7.00;;;6.30;;
36799;SDS011;22752;51.960;5.886;2022-08-19T04:28:08;6.30;;;5.53;;
36799;SDS011;22752;51.960;5.886;2022-08-19T04:30:46;5.70;;;5.20;;
36799;SDS011;22752;51.960;5.886;2022-08-19T04:33:15;7.18;;;6.50;;
36799;SDS011;22752;51.960;5.886;2022-08-19T04:35:46;7.32;;;6.03;;
36799;SDS011;22752;51.960;5.886;2022-08-19T04:38:13;7.10;;;5.65;;
36799;SDS011;22752;51.960;5.886;2022-08-19T04:40:41;5.25;;;4.70;;
36799;SDS011;22752;51.960;5.886;2022-08-19T04:43:26;7.10;;;6.40;;
36799;SDS011;22752;51.960;5.886;2022-08-19T04:45:52;7.05;;;6.43;;
36799;SDS011;22752;51.960;5.886;2022-08-19T04:48:18;6.80;;;6.10;;
36799;SDS011;22752;51.960;5.886;2022-08-19T04:50:54;9.05;;;6.43;;
36799;SDS011;22752;51.960;5.886;2022-08-19T04:53:24;6.28;;;5.68;;
36799;SDS011;22752;51.960;5.886;2022-08-19T04:55:57;6.07;;;5.47;;
36799;SDS011;22752;51.960;5.886;2022-08-19T04:58:24;6.35;;;5.75;;
36799;SDS011;22752;51.960;5.886;2022-08-19T05:00:51;5.97;;;5.38;;
36799;SDS011;22752;51.960;5.886;2022-08-19T05:03:17;6.70;;;5.97;;
36799;SDS011;22752;51.960;5.886;2022-08-19T05:05:44;6.47;;;5.88;;
36799;SDS011;22752;51.960;5.886;2022-08-19T05:08:13;6.53;;;5.93;;
36799;SDS011;22752;51.960;5.886;2022-08-19T05:10:44;9.07;;;5.88;;
36799;SDS011;22752;51.960;5.886;2022-08-19T05:13:12;6.35;;;5.75;;
36799;SDS011;22752;51.960;5.886;2022-08-19T05:15:39;7.10;;;6.00;;
36799;SDS011;22752;51.960;5.886;2022-08-19T05:18:05;7.38;;;6.68;;
36799;SDS011;22752;51.960;5.886;2022-08-19T05:20:49;7.72;;;6.90;;
36799;SDS011;22752;51.960;5.886;2022-08-19T05:23:34;7.10;;;6.00;;
36799;SDS011;22752;51.960;5.886;2022-08-19T05:25:59;7.93;;;6.03;;
36799;SDS011;22752;51.960;5.886;2022-08-19T05:28:25;7.43;;;6.55;;
36799;SDS011;22752;51.960;5.886;2022-08-19T05:30:52;7.65;;;6.18;;
36799;SDS011;22752;51.960;5.886;2022-08-19T05:33:20;6.88;;;6.28;;
36799;SDS011;22752;51.960;5.886;2022-08-19T05:35:46;6.13;;;5.60;;
36799;SDS011;22752;51.960;5.886;2022-08-19T05:38:14;6.93;;;5.70;;
36799;SDS011;22752;51.960;5.886;2022-08-19T05:40:41;6.78;;;6.10;;
36799;SDS011;22752;51.960;5.886;2022-08-19T05:43:10;7.18;;;5.72;;
36799;SDS011;22752;51.960;5.886;2022-08-19T05:45:39;5.47;;;4.97;;
36799;SDS011;22752;51.960;5.886;2022-08-19T05:48:06;7.28;;;5.80;;
36799;SDS011;22752;51.960;5.886;2022-08-19T05:50:35;7.07;;;6.38;;
36799;SDS011;22752;51.960;5.886;2022-08-19T05:53:01;9.60;;;8.02;;
36799;SDS011;22752;51.960;5.886;2022-08-19T05:55:26;9.35;;;7.72;;
36799;SDS011;22752;51.960;5.886;2022-08-19T05:57:52;7.85;;;7.05;;
36799;SDS011;22752;51.960;5.886;2022-08-19T06:00:18;8.20;;;7.40;;
36799;SDS011;22752;51.960;5.886;2022-08-19T06:02:43;11.00;;;8.88;;
36799;SDS011;22752;51.960;5.886;2022-08-19T06:05:09;10.10;;;8.98;;
36799;SDS011;22752;51.960;5.886;2022-08-19T06:07:36;9.05;;;8.23;;
36799;SDS011;22752;51.960;5.886;2022-08-19T06:10:03;16.55;;;14.43;;
36799;SDS011;22752;51.960;5.886;2022-08-19T06:12:31;17.70;;;14.43;;
36799;SDS011;22752;51.960;5.886;2022-08-19T06:14:59;16.80;;;15.00;;
36799;SDS011;22752;51.960;5.886;2022-08-19T06:17:26;14.82;;;13.32;;
36799;SDS011;22752;51.960;5.886;2022-08-19T06:19:54;17.58;;;15.63;;
36799;SDS011;22752;51.960;5.886;2022-08-19T06:22:20;19.27;;;16.70;;
36799;SDS011;22752;51.960;5.886;2022-08-19T06:24:46;17.00;;;15.30;;
36799;SDS011;22752;51.960;5.886;2022-08-19T06:27:12;16.67;;;14.95;;
36799;SDS011;22752;51.960;5.886;2022-08-19T06:29:37;17.58;;;15.88;;
36799;SDS011;22752;51.960;5.886;2022-08-19T06:32:03;17.75;;;15.95;;
36799;SDS011;22752;51.960;5.886;2022-08-19T06:34:30;16.52;;;14.82;;
36799;SDS011;22752;51.960;5.886;2022-08-19T06:36:58;17.13;;;14.55;;
36799;SDS011;22752;51.960;5.886;2022-08-19T06:39:30;14.45;;;12.95;;
36799;SDS011;22752;51.960;5.886;2022-08-19T06:42:00;14.55;;;13.05;;
36799;SDS011;22752;51.960;5.886;2022-08-19T06:44:28;15.18;;;13.57;;
36799;SDS011;22752;51.960;5.886;2022-08-19T06:47:00;16.80;;;15.07;;
36799;SDS011;22752;51.960;5.886;2022-08-19T06:49:29;26.70;;;23.65;;
36799;SDS011;22752;51.960;5.886;2022-08-19T06:51:58;29.45;;;24.75;;
36799;SDS011;22752;51.960;5.886;2022-08-19T06:54:24;37.45;;;29.55;;
36799;SDS011;22752;51.960;5.886;2022-08-19T06:56:51;46.10;;;34.63;;
36799;SDS011;22752;51.960;5.886;2022-08-19T06:59:18;45.17;;;32.00;;
36799;SDS011;22752;51.960;5.886;2022-08-19T07:01:46;55.28;;;37.70;;
36799;SDS011;22752;51.960;5.886;2022-08-19T07:04:15;54.17;;;37.50;;
36799;SDS011;22752;51.960;5.886;2022-08-19T07:06:43;59.78;;;38.97;;
36799;SDS011;22752;51.960;5.886;2022-08-19T07:09:10;53.05;;;35.60;;
36799;SDS011;22752;51.960;5.886;2022-08-19T07:11:38;58.03;;;37.53;;
36799;SDS011;22752;51.960;5.886;2022-08-19T07:14:08;61.75;;;40.13;;
36799;SDS011;22752;51.960;5.886;2022-08-19T07:16:34;61.88;;;40.28;;
36799;SDS011;22752;51.960;5.886;2022-08-19T07:18:59;54.65;;;37.97;;
36799;SDS011;22752;51.960;5.886;2022-08-19T07:21:26;59.45;;;37.05;;
36799;SDS011;22752;51.960;5.886;2022-08-19T07:23:53;50.83;;;33.20;;
36799;SDS011;22752;51.960;5.886;2022-08-19T07:26:23;58.40;;;38.38;;
36799;SDS011;22752;51.960;5.886;2022-08-19T07:28:51;52.15;;;35.63;;
36799;SDS011;22752;51.960;5.886;2022-08-19T07:31:18;73.78;;;48.58;;
36799;SDS011;22752;51.960;5.886;2022-08-19T07:33:46;58.72;;;40.45;;
36799;SDS011;22752;51.960;5.886;2022-08-19T07:36:14;60.63;;;38.25;;
36799;SDS011;22752;51.960;5.886;2022-08-19T07:38:43;66.15;;;45.65;;
36799;SDS011;22752;51.960;5.886;2022-08-19T07:41:13;72.43;;;45.60;;
36799;SDS011;22752;51.960;5.886;2022-08-19T07:43:41;76.68;;;51.08;;
36799;SDS011;22752;51.960;5.886;2022-08-19T07:46:08;71.78;;;49.72;;
36799;SDS011;22752;51.960;5.886;2022-08-19T07:48:34;70.35;;;46.75;;
36799;SDS011;22752;51.960;5.886;2022-08-19T07:51:01;67.75;;;46.83;;
36799;SDS011;22752;51.960;5.886;2022-08-19T07:53:30;66.95;;;48.08;;
36799;SDS011;22752;51.960;5.886;2022-08-19T07:55:58;68.18;;;46.80;;
36799;SDS011;22752;51.960;5.886;2022-08-19T07:58:33;62.45;;;44.97;;
36799;SDS011;22752;51.960;5.886;2022-08-19T08:01:03;65.57;;;48.38;;
36799;SDS011;22752;51.960;5.886;2022-08-19T08:03:29;56.85;;;42.78;;
36799;SDS011;22752;51.960;5.886;2022-08-19T08:06:14;50.40;;;40.85;;
36799;SDS011;22752;51.960;5.886;2022-08-19T08:08:59;52.25;;;41.05;;
36799;SDS011;22752;51.960;5.886;2022-08-19T08:11:57;51.65;;;41.10;;
36799;SDS011;22752;51.960;5.886;2022-08-19T08:14:29;52.45;;;40.03;;
36799;SDS011;22752;51.960;5.886;2022-08-19T08:16:57;50.65;;;40.05;;
36799;SDS011;22752;51.960;5.886;2022-08-19T08:19:24;41.55;;;36.08;;
36799;SDS011;22752;51.960;5.886;2022-08-19T08:21:55;42.85;;;36.10;;
36799;SDS011;22752;51.960;5.886;2022-08-19T08:24:22;46.72;;;36.90;;
36799;SDS011;22752;51.960;5.886;2022-08-19T08:26:48;49.38;;;39.53;;
36799;SDS011;22752;51.960;5.886;2022-08-19T08:29:14;48.03;;;34.65;;
36799;SDS011;22752;51.960;5.886;2022-08-19T08:31:41;32.40;;;28.90;;
36799;SDS011;22752;51.960;5.886;2022-08-19T08:34:08;41.75;;;33.65;;
36799;SDS011;22752;51.960;5.886;2022-08-19T08:36:38;38.00;;;30.95;;
36799;SDS011;22752;51.960;5.886;2022-08-19T08:39:10;45.28;;;36.97;;
36799;SDS011;22752;51.960;5.886;2022-08-19T08:44:31;33.27;;;27.23;;
36799;SDS011;22752;51.960;5.886;2022-08-19T08:47:13;36.90;;;30.80;;
36799;SDS011;22752;51.960;5.886;2022-08-19T08:52:22;35.25;;;28.02;;
36799;SDS011;22752;51.960;5.886;2022-08-19T08:54:54;36.78;;;29.38;;
36799;SDS011;22752;51.960;5.886;2022-08-19T08:57:26;36.55;;;27.33;;
36799;SDS011;22752;51.960;5.886;2022-08-19T09:00:10;31.55;;;26.55;;
36799;SDS011;22752;51.960;5.886;2022-08-19T09:02:41;43.80;;;30.60;;
36799;SDS011;22752;51.960;5.886;2022-08-19T09:05:08;35.55;;;27.05;;
36799;SDS011;22752;51.960;5.886;2022-08-19T09:07:42;34.40;;;26.33;;
36799;SDS011;22752;51.960;5.886;2022-08-19T09:10:22;29.77;;;24.50;;
36799;SDS011;22752;51.960;5.886;2022-08-19T09:15:45;31.83;;;23.02;;
36799;SDS011;22752;51.960;5.886;2022-08-19T09:18:16;37.42;;;25.70;;
36799;SDS011;22752;51.960;5.886;2022-08-19T09:20:43;30.85;;;23.73;;
36799;SDS011;22752;51.960;5.886;2022-08-19T09:23:09;33.08;;;24.92;;
36799;SDS011;22752;51.960;5.886;2022-08-19T09:25:35;35.15;;;26.50;;
36799;SDS011;22752;51.960;5.886;2022-08-19T09:28:01;30.83;;;23.30;;
36799;SDS011;22752;51.960;5.886;2022-08-19T09:30:29;33.75;;;24.83;;
36799;SDS011;22752;51.960;5.886;2022-08-19T09:32:56;31.63;;;23.80;;
36799;SDS011;22752;51.960;5.886;2022-08-19T09:35:23;32.47;;;23.83;;
36799;SDS011;22752;51.960;5.886;2022-08-19T09:37:50;34.88;;;24.83;;
36799;SDS011;22752;51.960;5.886;2022-08-19T09:40:17;31.95;;;23.77;;
36799;SDS011;22752;51.960;5.886;2022-08-19T09:42:44;37.08;;;27.48;;
36799;SDS011;22752;51.960;5.886;2022-08-19T09:45:11;33.58;;;22.63;;
36799;SDS011;22752;51.960;5.886;2022-08-19T09:47:38;33.28;;;24.05;;
36799;SDS011;22752;51.960;5.886;2022-08-19T09:50:05;33.88;;;22.67;;
36799;SDS011;22752;51.960;5.886;2022-08-19T09:52:32;36.15;;;24.60;;
36799;SDS011;22752;51.960;5.886;2022-08-19T09:55:03;34.88;;;22.02;;
36799;SDS011;22752;51.960;5.886;2022-08-19T09:57:29;33.83;;;22.75;;
36799;SDS011;22752;51.960;5.886;2022-08-19T09:59:55;32.35;;;22.08;;
36799;SDS011;22752;51.960;5.886;2022-08-19T10:02:21;28.75;;;21.42;;
36799;SDS011;22752;51.960;5.886;2022-08-19T10:04:46;31.30;;;21.77;;
36799;SDS011;22752;51.960;5.886;2022-08-19T10:07:30;29.50;;;20.88;;
36799;SDS011;22752;51.960;5.886;2022-08-19T10:09:56;28.88;;;20.40;;
36799;SDS011;22752;51.960;5.886;2022-08-19T10:12:22;22.85;;;16.38;;
36799;SDS011;22752;51.960;5.886;2022-08-19T10:14:48;26.05;;;20.40;;
36799;SDS011;22752;51.960;5.886;2022-08-19T10:17:16;28.65;;;20.60;;
36799;SDS011;22752;51.960;5.886;2022-08-19T10:19:42;30.63;;;20.77;;
36799;SDS011;22752;51.960;5.886;2022-08-19T10:22:08;29.38;;;21.27;;
36799;SDS011;22752;51.960;5.886;2022-08-19T10:24:39;30.58;;;19.77;;
36799;SDS011;22752;51.960;5.886;2022-08-19T10:27:05;28.60;;;21.02;;
36799;SDS011;22752;51.960;5.886;2022-08-19T10:29:31;31.80;;;20.90;;
36799;SDS011;22752;51.960;5.886;2022-08-19T10:32:03;32.72;;;23.30;;
36799;SDS011;22752;51.960;5.886;2022-08-19T10:34:32;34.92;;;22.70;;
36799;SDS011;22752;51.960;5.886;2022-08-19T10:36:58;27.13;;;21.23;;
36799;SDS011;22752;51.960;5.886;2022-08-19T10:39:25;29.25;;;20.20;;
36799;SDS011;22752;51.960;5.886;2022-08-19T10:41:54;26.70;;;18.38;;
36799;SDS011;22752;51.960;5.886;2022-08-19T10:44:21;33.55;;;21.13;;
36799;SDS011;22752;51.960;5.886;2022-08-19T10:46:48;32.95;;;21.98;;
36799;SDS011;22752;51.960;5.886;2022-08-19T10:49:14;30.30;;;22.15;;
36799;SDS011;22752;51.960;5.886;2022-08-19T10:51:40;33.83;;;22.75;;
36799;SDS011;22752;51.960;5.886;2022-08-19T10:54:25;33.88;;;22.83;;
36799;SDS011;22752;51.960;5.886;2022-08-19T10:57:09;26.38;;;20.42;;
36799;SDS011;22752;51.960;5.886;2022-08-19T10:59:35;27.98;;;20.83;;
36799;SDS011;22752;51.960;5.886;2022-08-19T11:02:02;27.92;;;20.48;;
36799;SDS011;22752;51.960;5.886;2022-08-19T11:04:31;24.88;;;18.52;;
36799;SDS011;22752;51.960;5.886;2022-08-19T11:06:58;30.67;;;20.88;;
36799;SDS011;22752;51.960;5.886;2022-08-19T11:09:24;32.97;;;17.48;;
36799;SDS011;22752;51.960;5.886;2022-08-19T11:11:54;26.58;;;20.67;;
36799;SDS011;22752;51.960;5.886;2022-08-19T11:14:22;24.33;;;17.70;;
36799;SDS011;22752;51.960;5.886;2022-08-19T11:16:50;20.58;;;16.17;;
36799;SDS011;22752;51.960;5.886;2022-08-19T11:19:17;27.10;;;17.02;;
36799;SDS011;22752;51.960;5.886;2022-08-19T11:21:45;27.95;;;20.75;;
36799;SDS011;22752;51.960;5.886;2022-08-19T11:24:13;21.10;;;15.85;;
36799;SDS011;22752;51.960;5.886;2022-08-19T11:26:43;26.65;;;18.88;;
36799;SDS011;22752;51.960;5.886;2022-08-19T11:29:09;24.08;;;17.73;;
36799;SDS011;22752;51.960;5.886;2022-08-19T11:31:37;23.60;;;17.48;;
36799;SDS011;22752;51.960;5.886;2022-08-19T11:34:06;28.38;;;19.23;;
36799;SDS011;22752;51.960;5.886;2022-08-19T11:36:39;24.13;;;16.80;;
36799;SDS011;22752;51.960;5.886;2022-08-19T11:39:08;23.52;;;17.08;;
36799;SDS011;22752;51.960;5.886;2022-08-19T11:41:35;19.40;;;13.07;;
36799;SDS011;22752;51.960;5.886;2022-08-19T11:44:02;15.52;;;11.55;;
36799;SDS011;22752;51.960;5.886;2022-08-19T11:46:29;22.33;;;15.82;;
36799;SDS011;22752;51.960;5.886;2022-08-19T11:48:57;27.10;;;17.10;;
36799;SDS011;22752;51.960;5.886;2022-08-19T11:51:25;18.63;;;13.60;;
36799;SDS011;22752;51.960;5.886;2022-08-19T11:53:52;26.83;;;16.95;;
36799;SDS011;22752;51.960;5.886;2022-08-19T11:56:20;19.08;;;15.18;;
36799;SDS011;22752;51.960;5.886;2022-08-19T11:58:46;21.63;;;14.88;;
36799;SDS011;22752;51.960;5.886;2022-08-19T12:01:14;15.77;;;12.43;;
36799;SDS011;22752;51.960;5.886;2022-08-19T12:03:41;23.95;;;15.82;;
36799;SDS011;22752;51.960;5.886;2022-08-19T12:06:10;20.25;;;15.43;;
36799;SDS011;22752;51.960;5.886;2022-08-19T12:08:39;19.23;;;13.48;;
36799;SDS011;22752;51.960;5.886;2022-08-19T12:11:05;22.63;;;17.33;;
36799;SDS011;22752;51.960;5.886;2022-08-19T12:13:33;20.90;;;17.27;;
36799;SDS011;22752;51.960;5.886;2022-08-19T12:15:59;19.80;;;14.95;;
36799;SDS011;22752;51.960;5.886;2022-08-19T12:18:25;24.35;;;15.10;;
36799;SDS011;22752;51.960;5.886;2022-08-19T12:20:51;23.63;;;17.38;;
36799;SDS011;22752;51.960;5.886;2022-08-19T12:23:21;21.95;;;17.52;;
36799;SDS011;22752;51.960;5.886;2022-08-19T12:25:48;27.17;;;20.80;;
36799;SDS011;22752;51.960;5.886;2022-08-19T12:28:20;25.02;;;19.40;;
36799;SDS011;22752;51.960;5.886;2022-08-19T12:30:47;21.25;;;15.50;;
36799;SDS011;22752;51.960;5.886;2022-08-19T12:33:16;23.80;;;17.38;;
36799;SDS011;22752;51.960;5.886;2022-08-19T12:35:42;20.45;;;15.40;;
36799;SDS011;22752;51.960;5.886;2022-08-19T12:38:11;21.42;;;16.98;;
36799;SDS011;22752;51.960;5.886;2022-08-19T12:40:38;22.40;;;18.10;;
36799;SDS011;22752;51.960;5.886;2022-08-19T12:43:05;21.48;;;15.77;;
36799;SDS011;22752;51.960;5.886;2022-08-19T12:45:32;20.90;;;14.85;;
36799;SDS011;22752;51.960;5.886;2022-08-19T12:47:58;16.67;;;13.13;;
36799;SDS011;22752;51.960;5.886;2022-08-19T12:50:24;24.30;;;19.90;;
36799;SDS011;22752;51.960;5.886;2022-08-19T12:52:49;15.63;;;12.63;;
36799;SDS011;22752;51.960;5.886;2022-08-19T12:55:15;18.58;;;16.05;;
36799;SDS011;22752;51.960;5.886;2022-08-19T12:57:43;24.30;;;17.65;;
36799;SDS011;22752;51.960;5.886;2022-08-19T13:00:13;22.30;;;16.10;;
36799;SDS011;22752;51.960;5.886;2022-08-19T13:05:11;27.98;;;18.55;;
36799;SDS011;22752;51.960;5.886;2022-08-19T13:07:41;21.73;;;18.83;;
36799;SDS011;22752;51.960;5.886;2022-08-19T13:10:11;24.67;;;18.50;;
36799;SDS011;22752;51.960;5.886;2022-08-19T13:12:40;23.88;;;19.30;;
36799;SDS011;22752;51.960;5.886;2022-08-19T13:15:06;24.35;;;16.88;;
36799;SDS011;22752;51.960;5.886;2022-08-19T13:17:33;17.77;;;13.27;;
36799;SDS011;22752;51.960;5.886;2022-08-19T13:19:59;29.10;;;22.13;;
36799;SDS011;22752;51.960;5.886;2022-08-19T13:22:25;21.77;;;17.20;;
36799;SDS011;22752;51.960;5.886;2022-08-19T13:24:52;23.63;;;15.85;;
36799;SDS011;22752;51.960;5.886;2022-08-19T13:27:17;18.17;;;14.48;;
36799;SDS011;22752;51.960;5.886;2022-08-19T13:29:43;17.90;;;14.00;;
36799;SDS011;22752;51.960;5.886;2022-08-19T13:32:28;21.00;;;17.02;;
36799;SDS011;22752;51.960;5.886;2022-08-19T13:35:13;24.73;;;16.98;;
36799;SDS011;22752;51.960;5.886;2022-08-19T13:37:39;19.73;;;14.35;;
36799;SDS011;22752;51.960;5.886;2022-08-19T13:40:10;21.20;;;15.70;;
36799;SDS011;22752;51.960;5.886;2022-08-19T13:42:56;14.00;;;11.95;;
36799;SDS011;22752;51.960;5.886;2022-08-19T13:45:23;17.15;;;12.77;;
36799;SDS011;22752;51.960;5.886;2022-08-19T13:47:50;14.75;;;11.70;;
36799;SDS011;22752;51.960;5.886;2022-08-19T13:50:19;21.30;;;16.65;;
36799;SDS011;22752;51.960;5.886;2022-08-19T13:52:47;16.48;;;11.80;;
36799;SDS011;22752;51.960;5.886;2022-08-19T13:55:13;15.35;;;13.00;;
36799;SDS011;22752;51.960;5.886;2022-08-19T13:57:40;17.50;;;12.63;;
36799;SDS011;22752;51.960;5.886;2022-08-19T14:00:11;19.40;;;15.48;;
36799;SDS011;22752;51.960;5.886;2022-08-19T14:02:39;18.90;;;14.85;;
36799;SDS011;22752;51.960;5.886;2022-08-19T14:05:06;17.25;;;13.20;;
36799;SDS011;22752;51.960;5.886;2022-08-19T14:07:33;22.83;;;16.42;;
36799;SDS011;22752;51.960;5.886;2022-08-19T14:09:59;20.67;;;14.75;;
36799;SDS011;22752;51.960;5.886;2022-08-19T14:12:25;19.23;;;14.60;;
36799;SDS011;22752;51.960;5.886;2022-08-19T14:14:51;21.92;;;17.38;;
36799;SDS011;22752;51.960;5.886;2022-08-19T14:17:16;17.63;;;14.05;;
36799;SDS011;22752;51.960;5.886;2022-08-19T14:19:42;23.33;;;15.77;;
36799;SDS011;22752;51.960;5.886;2022-08-19T14:22:08;22.83;;;16.63;;
36799;SDS011;22752;51.960;5.886;2022-08-19T14:24:36;20.50;;;15.90;;
36799;SDS011;22752;51.960;5.886;2022-08-19T14:27:03;21.95;;;18.15;;
36799;SDS011;22752;51.960;5.886;2022-08-19T14:29:29;22.60;;;15.85;;
36799;SDS011;22752;51.960;5.886;2022-08-19T14:31:55;22.95;;;15.25;;
36799;SDS011;22752;51.960;5.886;2022-08-19T14:34:23;21.15;;;14.18;;
36799;SDS011;22752;51.960;5.886;2022-08-19T14:36:50;26.65;;;16.70;;
36799;SDS011;22752;51.960;5.886;2022-08-19T14:39:15;20.27;;;16.90;;
36799;SDS011;22752;51.960;5.886;2022-08-19T14:41:41;17.67;;;13.95;;
36799;SDS011;22752;51.960;5.886;2022-08-19T14:44:10;20.75;;;16.25;;
36799;SDS011;22752;51.960;5.886;2022-08-19T14:46:37;17.73;;;13.85;;
36799;SDS011;22752;51.960;5.886;2022-08-19T14:49:03;16.67;;;12.48;;
36799;SDS011;22752;51.960;5.886;2022-08-19T14:51:30;15.30;;;12.85;;